Time;durP1;ratioP1;P1;durP2;ratioP2;P2;SDS_P1;SDS_P2;PMS_P1;PMS_P2;Temp;Humidity;BMP_temperature;BMP_pressure;BME280_temperature;BME280_humidity;BME280_pressure;Samples;Min_cycle;Max_cycle;Signal;HPM_P1;HPM_P2
2022/10/18 00:00:33;;;;;;;;;;;;;;;19.13;47.48;96672.19;6118842;19;1485;-86
2022/10/18 00:02:36;;;;;;;;;;;;;;;19.12;47.91;96666.03;6120176;19;1508;-86
2022/10/18 00:04:40;;;;;;;;;;;;;;;19.14;47.86;96668.53;6116744;19;1506;-85
2022/10/18 00:06:43;;;;;;;;;;;;;;;19.13;47.98;96665.03;6123234;19;1444;-85
2022/10/18 00:08:50;;;;;;;;;;;;;;;19.11;48.18;96656.38;6131784;19;1613;-83
2022/10/18 00:10:53;;;;;;;;;;;;;;;19.12;47.95;96658.06;6129225;19;1570;-86
2022/10/18 00:12:56;;;;;;;;;;;;;;;19.12;47.98;96655.38;6127485;19;1474;-84
2022/10/18 00:15:03;;;;;;;;;;;;;;;19.12;48.14;96650.06;6127334;19;1860;-84
2022/10/18 00:17:06;;;;;;;;;;;;;;;19.12;47.97;96649.19;6113474;19;1508;-84
2022/10/18 00:19:09;;;;;;;;;;;;;;;19.12;48.35;96646.53;6130855;19;1426;-84
2022/10/18 00:21:14;;;;;;;;;;;;;;;19.11;47.95;96650.22;6128210;19;1661;-83
2022/10/18 00:23:17;;;;;;;;;;;;;;;19.10;48.14;96638.72;6132048;19;1532;-86
2022/10/18 00:25:21;;;;;;;;;;;;;;;19.11;48.41;96636.88;6135342;19;1601;-84
2022/10/18 00:27:24;;;;;;;;;;;;;;;19.10;48.03;96644.03;6129039;19;1269;-84
2022/10/18 00:29:27;;;;;;;;;;;;;;;19.11;47.98;96639.53;6126843;19;1512;-84
2022/10/18 00:31:35;;;;;;;;;;;;;;;19.10;48.14;96632.56;6137404;19;1657;-84
2022/10/18 00:33:38;;;;;;;;;;;;;;;19.10;48.30;96632.56;6140863;19;1831;-84
2022/10/18 00:35:42;;;;;;;;;;;;;;;19.10;48.13;96627.22;6134366;19;1431;-83
2022/10/18 00:37:46;;;;;;;;;;;;;;;19.09;47.98;96630.88;6133397;19;1379;-85
2022/10/18 00:39:49;;;;;;;;;;;;;;;19.08;48.10;96627.38;6122740;19;1733;-84
2022/10/18 00:41:53;;;;;;;;;;;;;;;19.08;47.95;96624.72;6127440;19;1483;-83
2022/10/18 00:43:58;;;;;;;;;;;;;;;19.09;48.23;96621.03;6124984;19;1496;-84
2022/10/18 00:46:01;;;;;;;;;;;;;;;19.09;47.86;96625.53;6125249;19;1527;-84
2022/10/18 00:48:07;;;;;;;;;;;;;;;19.09;48.30;96628.22;6125575;19;1456;-85
2022/10/18 00:50:12;;;;;;;;;;;;;;;19.06;48.59;96623.22;6116759;19;1040;-86
2022/10/18 00:52:18;;;;;;;;;;;;;;;19.08;48.27;96619.38;6115589;19;1528;-83
2022/10/18 00:54:22;;;;;;;;;;;;;;;19.09;48.19;96622.88;6124618;19;1837;-83
2022/10/18 00:56:26;;;;;;;;;;;;;;;19.09;48.12;96617.56;6124120;19;1673;-83
2022/10/18 00:58:29;;;;;;;;;;;;;;;19.09;48.38;96620.22;6126981;19;1591;-83
2022/10/18 01:00:33;;;;;;;;;;;;;;;19.08;48.06;96623.88;6124718;19;1701;-83
2022/10/18 01:02:37;;;;;;;;;;;;;;;19.07;48.22;96614.25;6108125;19;1492;-84
2022/10/18 01:04:43;;;;;;;;;;;;;;;19.08;48.26;96618.56;6126635;19;1532;-85
2022/10/18 01:06:53;;;;;;;;;;;;;;;19.07;48.39;96604.41;6126746;19;1552;-84
2022/10/18 01:09:01;;;;;;;;;;;;;;;19.07;48.18;96611.56;6127299;19;1453;-84
2022/10/18 01:11:11;;;;;;;;;;;;;;;19.08;48.15;96607.91;6127305;19;1440;-84
2022/10/18 01:13:23;;;;;;;;;;;;;;;19.07;48.50;96603.59;6117211;19;1201;-83
2022/10/18 01:15:29;;;;;;;;;;;;;;;19.06;48.12;96604.56;6114777;19;1881;-82
2022/10/18 01:17:37;;;;;;;;;;;;;;;19.06;48.33;96609.88;6125234;19;1552;-83
2022/10/18 01:19:58;;;;;;;;;;;;;;;19.05;48.19;96611.72;6124279;19;1526;-82
2022/10/18 01:22:07;;;;;;;;;;;;;;;19.06;48.10;96604.56;6126946;19;1513;-83
2022/10/18 01:24:25;;;;;;;;;;;;;;;19.05;48.45;96602.91;6127854;19;1543;-83
2022/10/18 01:26:38;;;;;;;;;;;;;;;19.05;48.48;96602.91;6110094;19;1441;-83
2022/10/18 01:28:49;;;;;;;;;;;;;;;19.05;48.57;96602.91;6127374;19;1492;-83
2022/10/18 01:30:58;;;;;;;;;;;;;;;19.05;48.44;96597.56;6126631;19;1445;-83
2022/10/18 01:33:04;;;;;;;;;;;;;;;19.04;48.64;96598.59;6124087;19;1451;-83
2022/10/18 01:35:10;;;;;;;;;;;;;;;19.05;48.52;96600.25;6120446;19;1856;-82
2022/10/18 01:37:16;;;;;;;;;;;;;;;19.04;48.64;96601.25;6106466;19;1630;-82
2022/10/18 01:39:29;;;;;;;;;;;;;;;19.04;48.75;96602.06;6121258;19;1511;-83
2022/10/18 01:41:34;;;;;;;;;;;;;;;19.03;48.51;96596.91;6126122;19;1417;-83
2022/10/18 01:43:38;;;;;;;;;;;;;;;19.04;48.66;96593.25;6123101;19;1513;-82
2022/10/18 01:45:43;;;;;;;;;;;;;;;19.03;48.46;96594.22;6123338;19;1136;-82
2022/10/18 01:47:50;;;;;;;;;;;;;;;19.02;48.41;96590.75;6116550;19;1432;-82
2022/10/18 01:49:58;;;;;;;;;;;;;;;19.03;48.40;96595.06;6112858;19;1571;-84
2022/10/18 01:52:02;;;;;;;;;;;;;;;19.03;48.28;96591.56;6122436;19;1520;-82
2022/10/18 01:54:05;;;;;;;;;;;;;;;19.02;48.59;96592.56;6124964;19;1652;-82
2022/10/18 01:56:18;;;;;;;;;;;;;;;19.02;48.60;96589.91;6125007;19;1415;-82
2022/10/18 01:58:24;;;;;;;;;;;;;;;19.02;48.14;96597.91;6125596;19;1512;-85
2022/10/18 02:00:32;;;;;;;;;;;;;;;19.01;48.41;96591.75;6108731;19;1473;-83
2022/10/18 02:02:44;;;;;;;;;;;;;;;19.03;48.14;96588.91;6122121;19;1606;-84
2022/10/18 02:04:53;;;;;;;;;;;;;;;19.03;48.62;96588.91;6125213;19;1457;-84
2022/10/18 02:07:05;;;;;;;;;;;;;;;19.03;48.50;96588.91;6123494;19;1491;-85
2022/10/18 02:09:11;;;;;;;;;;;;;;;19.01;48.08;96586.41;6124726;19;1665;-85
2022/10/18 02:11:16;;;;;;;;;;;;;;;19.00;48.23;96576.75;6128118;19;1496;-86
2022/10/18 02:13:21;;;;;;;;;;;;;;;19.01;48.07;96583.75;6140790;19;1595;-86
2022/10/18 02:15:27;;;;;;;;;;;;;;;18.99;48.22;96578.56;6141067;19;1842;-86
2022/10/18 02:17:31;;;;;;;;;;;;;;;18.99;48.34;96578.56;6133665;19;1587;-85
2022/10/18 02:19:36;;;;;;;;;;;;;;;19.02;48.21;96580.09;6123646;19;1437;-88
2022/10/18 02:21:43;;;;;;;;;;;;;;;19.03;48.54;96564.94;6123892;19;1583;-85
2022/10/18 02:23:47;;;;;;;;;;;;;;;19.04;48.49;96570.09;6108336;19;1441;-86
2022/10/18 02:25:51;;;;;;;;;;;;;;;19.05;48.39;96569.09;6121983;19;1002;-85
2022/10/18 02:27:55;;;;;;;;;;;;;;;19.09;47.95;96566.94;6127078;19;1516;-86
2022/10/18 02:29:59;;;;;;;;;;;;;;;19.16;48.13;96567.97;6126682;19;1430;-89
2022/10/18 02:32:06;;;;;;;;;;;;;;;19.12;48.04;96571.94;6122810;19;1627;-86
2022/10/18 02:34:15;;;;;;;;;;;;;;;19.07;48.14;96566.28;6109608;19;1563;-84
2022/10/18 02:36:21;;;;;;;;;;;;;;;19.09;47.48;96567.75;6123219;19;1841;-85
2022/10/18 02:38:28;;;;;;;;;;;;;;;19.08;47.82;96573.28;6124366;19;1464;-87
2022/10/18 02:40:32;;;;;;;;;;;;;;;19.08;47.63;96578.59;6123492;19;1593;-85
2022/10/18 02:42:37;;;;;;;;;;;;;;;19.08;47.78;96578.59;6123793;19;1584;-85
2022/10/18 02:44:40;;;;;;;;;;;;;;;19.07;47.60;96571.63;6120740;19;1465;-86
2022/10/18 02:46:44;;;;;;;;;;;;;;;19.06;47.95;96573.41;6113157;19;1662;-85
2022/10/18 02:48:47;;;;;;;;;;;;;;;19.05;47.87;96582.41;6123685;19;1418;-86
2022/10/18 02:50:51;;;;;;;;;;;;;;;18.97;47.95;96580.56;6126448;19;1583;-81
2022/10/18 02:52:54;;;;;;;;;;;;;;;18.97;47.77;96583.22;6124589;19;1710;-86
2022/10/18 02:55:00;;;;;;;;;;;;;;;19.08;47.97;96587.41;6123943;19;1864;-83
2022/10/18 02:57:04;;;;;;;;;;;;;;;19.12;47.74;96591.44;6107464;19;1551;-85
2022/10/18 02:59:07;;;;;;;;;;;;;;;19.11;47.96;96592.41;6125077;19;1500;-85
2022/10/18 03:01:11;;;;;;;;;;;;;;;18.99;47.65;96589.22;6124767;19;1515;-80
2022/10/18 03:03:14;;;;;;;;;;;;;;;17.49;38.59;96588.72;6124504;19;1430;-81
2022/10/18 03:05:17;;;;;;;;;;;;;;;16.85;37.25;96584.47;6123626;19;1507;-85
2022/10/18 03:07:21;;;;;;;;;;;;;;;16.80;38.22;96582.25;6119690;19;1571;-86
2022/10/18 03:09:24;;;;;;;;;;;;;;;17.33;39.99;96583.28;6110886;19;1566;-81
2022/10/18 03:11:30;;;;;;;;;;;;;;;17.48;39.90;96591.53;6120788;19;982;-85
2022/10/18 03:13:33;;;;;;;;;;;;;;;17.65;40.86;96588.84;6123596;19;1441;-84
2022/10/18 03:15:37;;;;;;;;;;;;;;;17.84;40.94;96577.22;6122012;19;1861;-83
2022/10/18 03:17:40;;;;;;;;;;;;;;;17.80;39.89;96577.69;6121512;19;1436;-84
2022/10/18 03:19:44;;;;;;;;;;;;;;;17.79;39.65;96576.03;6106821;19;1640;-82
2022/10/18 03:21:47;;;;;;;;;;;;;;;17.78;39.91;96583.16;6123677;19;1417;-84
2022/10/18 03:23:50;;;;;;;;;;;;;;;17.76;40.06;96576.34;6122291;19;1528;-82
2022/10/18 03:25:54;;;;;;;;;;;;;;;17.77;39.60;96575.34;6123677;19;1567;-83
2022/10/18 03:28:00;;;;;;;;;;;;;;;17.73;39.51;96576.63;6122579;19;1432;-83
2022/10/18 03:30:05;;;;;;;;;;;;;;;17.73;39.42;96569.47;6120764;19;1686;-82
2022/10/18 03:32:08;;;;;;;;;;;;;;;17.74;39.37;96567.69;6111298;19;1407;-84
2022/10/18 03:34:12;;;;;;;;;;;;;;;17.76;38.91;96566.53;6124139;19;1353;-84
2022/10/18 03:36:15;;;;;;;;;;;;;;;17.77;39.32;96580.66;6124711;19;1865;-85
2022/10/18 03:38:18;;;;;;;;;;;;;;;17.75;39.14;96579.97;6124194;19;1455;-85
2022/10/18 03:40:22;;;;;;;;;;;;;;;17.74;38.63;96579.16;6121613;19;1322;-86
2022/10/18 03:42:25;;;;;;;;;;;;;;;17.75;38.94;96582.63;6102845;19;1485;-86
2022/10/18 03:44:31;;;;;;;;;;;;;;;17.71;38.73;96579.44;6120601;19;1583;-86
2022/10/18 03:46:34;;;;;;;;;;;;;;;17.72;38.63;96586.41;6122488;19;1566;-86
2022/10/18 03:48:39;;;;;;;;;;;;;;;17.73;38.79;96588.09;6122444;19;1344;-85
2022/10/18 03:50:43;;;;;;;;;;;;;;;17.72;38.97;96589.06;6121238;19;1528;-81
2022/10/18 03:52:47;;;;;;;;;;;;;;;17.72;38.75;96593.53;6120941;19;1682;-84
2022/10/18 03:54:54;;;;;;;;;;;;;;;17.72;38.26;96599.69;6104010;19;1536;-86
2022/10/18 03:56:57;;;;;;;;;;;;;;;17.66;38.03;96595.00;6123440;19;1448;-86
2022/10/18 03:59:03;;;;;;;;;;;;;;;17.63;38.91;96596.13;6121047;19;1586;-88
2022/10/18 04:01:09;;;;;;;;;;;;;;;17.59;38.59;96592.13;6118083;19;1443;-83
2022/10/18 04:03:12;;;;;;;;;;;;;;;17.56;38.45;96595.09;6120232;19;2443;-80
2022/10/18 04:05:16;;;;;;;;;;;;;;;17.51;38.37;96594.72;6104448;19;1119;-84
2022/10/18 04:07:19;;;;;;;;;;;;;;;17.46;38.59;96601.50;6118753;19;1405;-84
2022/10/18 04:09:23;;;;;;;;;;;;;;;17.35;38.36;96598.06;6120924;19;1428;-83
2022/10/18 04:11:26;;;;;;;;;;;;;;;17.21;38.84;96593.28;6122477;19;1438;-85
2022/10/18 04:13:29;;;;;;;;;;;;;;;17.23;38.31;96588.66;6118659;19;1459;-83
2022/10/18 04:15:33;;;;;;;;;;;;;;;17.17;38.80;96595.41;6117134;19;1868;-84
2022/10/18 04:17:39;;;;;;;;;;;;;;;16.85;38.59;96587.97;6104190;19;1473;-83
2022/10/18 04:19:42;;;;;;;;;;;;;;;16.73;38.72;96592.63;6118962;19;1412;-83
2022/10/18 04:21:46;;;;;;;;;;;;;;;16.65;39.11;96592.53;6120878;19;1215;-83
2022/10/18 04:23:49;;;;;;;;;;;;;;;16.62;38.75;96592.00;6121176;19;1143;-84
2022/10/18 04:25:53;;;;;;;;;;;;;;;16.59;38.67;96590.47;6120586;19;1097;-84
2022/10/18 04:27:56;;;;;;;;;;;;;;;16.58;38.71;96590.59;6112426;19;1394;-84
2022/10/18 04:30:00;;;;;;;;;;;;;;;16.54;38.88;96587.41;6115210;19;1211;-85
2022/10/18 04:32:03;;;;;;;;;;;;;;;16.52;38.56;96589.38;6118743;19;1477;-83
2022/10/18 04:34:09;;;;;;;;;;;;;;;16.47;38.63;96588.97;6120010;19;1077;-83
2022/10/18 04:36:12;;;;;;;;;;;;;;;16.50;38.52;96589.53;6118794;19;1853;-83
2022/10/18 04:38:16;;;;;;;;;;;;;;;16.45;38.74;96589.13;6119460;19;1473;-83
2022/10/18 04:40:19;;;;;;;;;;;;;;;16.44;38.65;96586.63;6108026;19;1061;-83
2022/10/18 04:42:23;;;;;;;;;;;;;;;16.41;38.74;96582.44;6120753;19;1433;-83
2022/10/18 04:44:26;;;;;;;;;;;;;;;16.40;38.23;96580.78;6123794;19;1136;-83
2022/10/18 04:46:30;;;;;;;;;;;;;;;16.38;38.74;96582.72;6120021;19;1049;-83
2022/10/18 04:48:33;;;;;;;;;;;;;;;16.36;38.27;96581.22;6120500;19;1025;-83
2022/10/18 04:50:39;;;;;;;;;;;;;;;16.28;38.64;96582.78;6113792;19;1037;-84
2022/10/18 04:52:42;;;;;;;;;;;;;;;16.23;38.49;96582.38;6112379;19;1568;-83
2022/10/18 04:54:45;;;;;;;;;;;;;;;16.18;38.22;96576.69;6118446;19;1277;-83
2022/10/18 04:56:49;;;;;;;;;;;;;;;16.23;37.98;96577.09;6116828;19;1842;-84
2022/10/18 04:58:52;;;;;;;;;;;;;;;16.25;38.13;96579.59;6118510;19;1044;-83
2022/10/18 05:00:56;;;;;;;;;;;;;;;16.23;38.25;96574.44;6118962;19;1044;-83
2022/10/18 05:02:59;;;;;;;;;;;;;;;16.23;37.87;96577.09;6102523;19;1036;-83
2022/10/18 05:05:03;;;;;;;;;;;;;;;16.23;38.27;96569.13;6117768;19;1227;-83
2022/10/18 05:07:09;;;;;;;;;;;;;;;16.23;38.01;96565.63;6118848;19;1076;-83
2022/10/18 05:09:12;;;;;;;;;;;;;;;16.19;37.99;96559.81;6117534;19;1545;-83
2022/10/18 05:11:16;;;;;;;;;;;;;;;16.22;38.31;96558.69;6124864;19;1057;-83
2022/10/18 05:13:19;;;;;;;;;;;;;;;16.20;38.35;96560.63;6116429;19;1049;-83
2022/10/18 05:15:22;;;;;;;;;;;;;;;16.19;37.87;96558.94;6116748;19;1015;-82
2022/10/18 05:17:26;;;;;;;;;;;;;;;16.17;38.20;96568.88;6121482;19;1881;-84
2022/10/18 05:19:29;;;;;;;;;;;;;;;16.17;38.16;96571.53;6124530;19;1126;-83
2022/10/18 05:21:32;;;;;;;;;;;;;;;16.13;38.22;96568.31;6121890;19;1541;-84
2022/10/18 05:23:38;;;;;;;;;;;;;;;16.12;37.73;96571.97;6123148;19;1058;-83
2022/10/18 05:25:42;;;;;;;;;;;;;;;16.13;38.13;96563.00;6108314;19;1195;-83
2022/10/18 05:27:45;;;;;;;;;;;;;;;16.08;38.29;96567.94;6124006;19;1049;-83
2022/10/18 05:29:48;;;;;;;;;;;;;;;16.06;38.05;96567.25;6124024;19;1029;-83
2022/10/18 05:31:52;;;;;;;;;;;;;;;16.09;37.66;96570.44;6123412;19;1044;-83
2022/10/18 05:33:55;;;;;;;;;;;;;;;16.08;38.13;96573.25;6121617;19;1310;-83
2022/10/18 05:35:59;;;;;;;;;;;;;;;16.08;37.92;96571.41;6114214;19;1838;-83
2022/10/18 05:38:04;;;;;;;;;;;;;;;16.05;37.81;96566.41;6115216;19;1032;-83
2022/10/18 05:40:11;;;;;;;;;;;;;;;16.03;37.62;96572.84;6121512;19;1398;-83
2022/10/18 05:42:15;;;;;;;;;;;;;;;16.05;38.16;96570.88;6123017;19;1215;-83
2022/10/18 05:44:18;;;;;;;;;;;;;;;16.05;37.80;96578.84;6123196;19;1148;-83
2022/10/18 05:46:22;;;;;;;;;;;;;;;16.04;37.78;96577.97;6123234;19;1117;-83
2022/10/18 05:48:25;;;;;;;;;;;;;;;16.07;38.16;96576.84;6108272;19;1462;-83
2022/10/18 05:50:29;;;;;;;;;;;;;;;16.02;37.59;96576.47;6123443;19;1048;-82
2022/10/18 05:52:32;;;;;;;;;;;;;;;16.03;37.73;96576.31;6122624;19;1039;-83
2022/10/18 05:54:36;;;;;;;;;;;;;;;16.03;37.54;96572.84;6122760;19;1472;-83
2022/10/18 05:56:42;;;;;;;;;;;;;;;16.02;38.05;96579.13;6121695;19;1816;-82
2022/10/18 05:58:45;;;;;;;;;;;;;;;16.04;37.62;96582.44;6115792;19;1144;-83
2022/10/18 06:00:48;;;;;;;;;;;;;;;16.03;37.62;96586.09;6114016;19;1159;-83
2022/10/18 06:02:52;;;;;;;;;;;;;;;16.03;37.93;96583.44;6120701;19;1490;-83
2022/10/18 06:04:55;;;;;;;;;;;;;;;15.95;37.91;96576.19;6120434;19;1476;-83
2022/10/18 06:06:59;;;;;;;;;;;;;;;15.90;37.90;96574.97;6123382;19;1017;-83
2022/10/18 06:09:02;;;;;;;;;;;;;;;15.92;37.79;96573.00;6122777;19;1496;-82
2022/10/18 06:11:08;;;;;;;;;;;;;;;15.93;37.73;96574.66;6107042;19;1013;-83
2022/10/18 06:13:14;;;;;;;;;;;;;;;16.02;37.25;96579.13;6122713;19;1026;-83
2022/10/18 06:15:17;;;;;;;;;;;;;;;16.05;37.68;96584.16;6122772;19;974;-83
2022/10/18 06:17:21;;;;;;;;;;;;;;;16.05;37.97;96581.50;6120200;19;1849;-83
2022/10/18 06:19:24;;;;;;;;;;;;;;;16.11;37.50;96585.38;6121972;19;1128;-83
2022/10/18 06:21:28;;;;;;;;;;;;;;;16.13;37.55;96589.53;6112808;19;1084;-83
2022/10/18 06:23:31;;;;;;;;;;;;;;;16.11;37.77;96590.69;6114761;19;1025;-83
2022/10/18 06:25:34;;;;;;;;;;;;;;;16.09;37.77;96588.16;6122932;19;1030;-83
2022/10/18 06:27:38;;;;;;;;;;;;;;;16.06;37.90;96585.81;6121022;19;1387;-83
2022/10/18 06:29:44;;;;;;;;;;;;;;;16.07;37.47;96590.94;6121340;19;1069;-83
2022/10/18 06:31:47;;;;;;;;;;;;;;;16.11;37.45;96582.72;6120149;19;1458;-84
2022/10/18 06:33:51;;;;;;;;;;;;;;;16.11;37.84;96580.06;6106969;19;1143;-83
2022/10/18 06:35:58;;;;;;;;;;;;;;;16.12;37.92;96576.44;6122274;19;1044;-83
2022/10/18 06:38:01;;;;;;;;;;;;;;;16.06;37.87;96573.38;6121449;19;963;-82
2022/10/18 06:40:05;;;;;;;;;;;;;;;16.07;37.60;96579.50;6121317;19;1185;-83
2022/10/18 06:42:08;;;;;;;;;;;;;;;16.07;37.85;96576.84;6120051;19;1584;-83
2022/10/18 06:44:13;;;;;;;;;;;;;;;16.06;37.58;96572.53;6113905;19;1061;-83
2022/10/18 06:46:19;;;;;;;;;;;;;;;16.12;37.94;96577.25;6115269;19;1152;-83
2022/10/18 06:48:23;;;;;;;;;;;;;;;16.09;37.70;96572.25;6119586;19;1517;-83
2022/10/18 06:50:26;;;;;;;;;;;;;;;16.12;37.57;96571.13;6121581;19;1121;-83
2022/10/18 06:52:30;;;;;;;;;;;;;;;16.13;37.97;96573.63;6121188;19;1147;-83
2022/10/18 06:54:33;;;;;;;;;;;;;;;16.16;37.91;96573.34;6120656;19;1345;-83
2022/10/18 06:56:37;;;;;;;;;;;;;;;16.14;38.14;96569.19;6105845;19;1846;-84
2022/10/18 06:58:40;;;;;;;;;;;;;;;16.09;38.09;96566.94;6120066;19;1399;-84
2022/10/18 07:00:44;;;;;;;;;;;;;;;16.13;37.92;96567.50;6122161;19;1036;-84
2022/10/18 07:02:50;;;;;;;;;;;;;;;16.12;37.64;96566.66;6120148;19;1403;-83
2022/10/18 07:04:53;;;;;;;;;;;;;;;16.16;37.66;96568.06;6121170;19;1053;-83
2022/10/18 07:06:56;;;;;;;;;;;;;;;16.09;37.76;96569.59;6113434;19;1069;-83
2022/10/18 07:09:01;;;;;;;;;;;;;;;16.06;37.66;96562.78;6116160;19;1128;-83
2022/10/18 07:11:05;;;;;;;;;;;;;;;16.20;37.42;96564.13;6119441;19;1399;-83
2022/10/18 07:13:09;;;;;;;;;;;;;;;16.19;37.68;96572.19;6119526;19;1501;-83
2022/10/18 07:15:12;;;;;;;;;;;;;;;16.13;37.76;96568.31;6119262;19;1531;-85
2022/10/18 07:17:16;;;;;;;;;;;;;;;16.14;37.48;96567.34;6119780;19;1845;-83
2022/10/18 07:19:22;;;;;;;;;;;;;;;16.12;37.52;96560.53;6105716;19;1077;-83
2022/10/18 07:21:26;;;;;;;;;;;;;;;16.15;37.75;96562.88;6120205;19;1018;-83
2022/10/18 07:23:29;;;;;;;;;;;;;;;16.15;38.21;96561.06;6120538;19;1065;-83
2022/10/18 07:25:33;;;;;;;;;;;;;;;16.20;37.95;96561.47;6120348;19;1128;-82
2022/10/18 07:27:37;;;;;;;;;;;;;;;16.21;38.24;96560.47;6120331;19;1005;-83
2022/10/18 07:29:41;;;;;;;;;;;;;;;16.23;37.91;96552.38;6103821;19;1503;-83
2022/10/18 07:31:44;;;;;;;;;;;;;;;16.28;37.80;96555.44;6119380;19;1068;-83
2022/10/18 07:33:47;;;;;;;;;;;;;;;16.27;38.05;96551.09;6119418;19;1493;-83
2022/10/18 07:35:53;;;;;;;;;;;;;;;16.30;38.03;96551.66;6120342;19;1100;-83
2022/10/18 07:37:57;;;;;;;;;;;;;;;16.28;38.29;96556.25;6119575;19;1842;-84
2022/10/18 07:40:02;;;;;;;;;;;;;;;16.44;37.63;96554.78;6123746;19;974;-88
2022/10/18 07:42:05;;;;;;;;;;;;;;;16.84;37.93;96540.31;6104762;19;1220;-84
2022/10/18 07:44:09;;;;;;;;;;;;;;;17.12;37.51;96538.44;6120320;19;1029;-84
2022/10/18 07:46:13;;;;;;;;;;;;;;;17.33;37.29;96549.56;6119711;19;1128;-80
2022/10/18 07:48:16;;;;;;;;;;;;;;;17.47;37.11;96537.56;6121000;19;1064;-87
2022/10/18 07:50:20;;;;;;;;;;;;;;;17.57;37.29;96532.97;6120629;19;1371;-85
2022/10/18 07:52:26;;;;;;;;;;;;;;;17.62;37.27;96525.38;6105555;19;1064;-87
2022/10/18 07:54:29;;;;;;;;;;;;;;;17.70;37.32;96526.41;6117971;19;1285;-80
2022/10/18 07:56:33;;;;;;;;;;;;;;;17.72;37.24;96530.56;6117394;19;1852;-80
2022/10/18 07:58:36;;;;;;;;;;;;;;;17.76;37.18;96528.50;6118851;19;851;-82
2022/10/18 08:00:40;;;;;;;;;;;;;;;17.78;37.54;96526.47;6117930;19;1434;-81
2022/10/18 08:02:44;;;;;;;;;;;;;;;17.79;37.36;96521.03;6118598;19;1159;-80
2022/10/18 08:04:48;;;;;;;;;;;;;;;17.83;37.10;96526.84;6103643;19;1132;-84
2022/10/18 08:06:51;;;;;;;;;;;;;;;17.84;37.77;96520.53;6118638;19;1403;-88
2022/10/18 08:08:57;;;;;;;;;;;;;;;17.83;37.54;96522.38;6121508;19;1040;-86
2022/10/18 08:11:14;;;;;;;;;;;;;;;17.85;37.66;96520.38;6121685;19;1066;-87
2022/10/18 08:13:18;;;;;;;;;;;;;;;17.88;38.05;96505.94;6119123;19;963;-82
2022/10/18 08:15:23;;;;;;;;;;;;;;;17.89;38.22;96512.91;6105177;19;1053;-86
2022/10/18 08:17:37;;;;;;;;;;;;;;;17.89;38.00;96507.59;6119685;19;1847;-87
2022/10/18 08:19:41;;;;;;;;;;;;;;;17.92;38.35;96504.63;6120415;19;1048;-87
2022/10/18 08:21:44;;;;;;;;;;;;;;;17.94;38.00;96496.50;6119838;19;1014;-87
2022/10/18 08:23:48;;;;;;;;;;;;;;;17.95;38.08;96499.00;6118067;19;1479;-83
2022/10/18 08:25:54;;;;;;;;;;;;;;;17.96;38.30;96494.53;6112516;19;1489;-84
2022/10/18 08:27:57;;;;;;;;;;;;;;;18.02;38.42;96488.56;6107761;19;1481;-90
2022/10/18 08:30:01;;;;;;;;;;;;;;;18.06;38.34;96484.56;6114706;19;1495;-83
2022/10/18 08:32:04;;;;;;;;;;;;;;;18.06;38.30;96485.41;6121102;19;1256;-84
2022/10/18 08:34:07;;;;;;;;;;;;;;;18.06;38.47;96489.91;6117531;19;1407;-83
2022/10/18 08:36:12;;;;;;;;;;;;;;;18.06;38.23;96480.09;6117215;19;1463;-84
2022/10/18 08:38:16;;;;;;;;;;;;;;;18.07;38.41;96471.13;6103955;19;1838;-83
2022/10/18 08:40:19;;;;;;;;;;;;;;;18.07;38.58;96473.78;6120238;19;1159;-84
2022/10/18 08:42:36;;;;;;;;;;;;;;;18.08;38.35;96478.13;6120441;19;1476;-84
2022/10/18 08:44:46;;;;;;;;;;;;;;;18.12;38.69;96467.97;6121825;19;1399;-87
2022/10/18 08:46:52;;;;;;;;;;;;;;;18.14;38.85;96466.00;6124967;19;1466;-87
2022/10/18 08:48:56;;;;;;;;;;;;;;;18.17;38.70;96462.19;6120039;19;1515;-88
2022/10/18 08:51:00;;;;;;;;;;;;;;;18.18;38.74;96461.19;6118913;19;1464;-87
2022/10/18 08:53:07;;;;;;;;;;;;;;;18.16;38.58;96458.69;6125330;19;1538;-89
2022/10/18 08:55:14;;;;;;;;;;;;;;;18.17;38.95;96454.19;6125195;19;1305;-89
2022/10/18 08:57:19;;;;;;;;;;;;;;;18.16;39.10;96452.53;6125832;19;1845;-89
2022/10/18 08:59:25;;;;;;;;;;;;;;;18.16;39.18;96442.72;6127379;19;1429;-89
2022/10/18 09:01:30;;;;;;;;;;;;;;;18.20;39.06;96448.56;6109431;19;1224;-84
2022/10/18 09:03:48;;;;;;;;;;;;;;;18.22;38.82;96443.91;6125310;19;1517;-84
2022/10/18 09:05:53;;;;;;;;;;;;;;;18.23;38.74;96437.59;6120703;19;1523;-83
2022/10/18 09:08:09;;;;;;;;;;;;;;;18.23;39.16;96441.06;6126999;19;1405;-84
2022/10/18 09:10:21;;;;;;;;;;;;;;;18.26;39.19;96431.94;6124365;19;1436;-81
2022/10/18 09:12:41;;;;;;;;;;;;;;;18.24;38.36;96428.59;6108742;19;1037;-80
2022/10/18 09:14:55;;;;;;;;;;;;;;;18.24;38.07;96436.59;6124878;19;1432;-81
2022/10/18 09:17:03;;;;;;;;;;;;;;;18.26;38.02;96437.25;6122914;19;1100;-81
2022/10/18 09:19:14;;;;;;;;;;;;;;;18.27;37.73;96429.13;6125378;19;1494;-81
2022/10/18 09:21:21;;;;;;;;;;;;;;;18.30;37.87;96427.97;6121543;19;1471;-85
2022/10/18 09:23:33;;;;;;;;;;;;;;;18.32;38.27;96425.97;6111359;19;1499;-90
2022/10/18 09:25:38;;;;;;;;;;;;;;;18.32;38.53;96431.28;6124238;19;1536;-85
2022/10/18 09:27:45;;;;;;;;;;;;;;;18.30;38.70;96422.66;6123326;19;1057;-87
2022/10/18 09:29:58;;;;;;;;;;;;;;;18.33;38.25;96425.00;6122960;19;1413;-84
2022/10/18 09:32:05;;;;;;;;;;;;;;;18.33;38.65;96412.50;6124242;19;1456;-85
2022/10/18 09:34:11;;;;;;;;;;;;;;;18.35;38.21;96415.00;6115691;19;1132;-88
2022/10/18 09:36:19;;;;;;;;;;;;;;;18.33;38.65;96409.84;6115900;19;1551;-87
2022/10/18 09:38:26;;;;;;;;;;;;;;;18.36;38.19;96414.00;6123553;19;1868;-83
2022/10/18 09:40:31;;;;;;;;;;;;;;;18.35;38.35;96406.19;6126207;19;1263;-85
2022/10/18 09:42:37;;;;;;;;;;;;;;;18.35;38.81;96409.66;6125291;19;1428;-84
2022/10/18 09:44:43;;;;;;;;;;;;;;;18.35;38.48;96404.34;6124359;19;1229;-84
2022/10/18 09:46:51;;;;;;;;;;;;;;;18.34;38.64;96402.69;6109115;19;1404;-84
2022/10/18 09:48:57;;;;;;;;;;;;;;;18.35;38.76;96401.69;6124281;19;1381;-83
2022/10/18 09:51:05;;;;;;;;;;;;;;;18.37;38.90;96402.38;6122579;19;1488;-84
2022/10/18 09:53:14;;;;;;;;;;;;;;;18.38;38.79;96395.22;6111231;19;1417;-84
2022/10/18 09:55:21;;;;;;;;;;;;;;;18.40;38.98;96391.38;6121255;19;1513;-86
2022/10/18 09:57:28;;;;;;;;;;;;;;;18.40;38.81;96391.38;6108260;19;1833;-84
2022/10/18 09:59:37;;;;;;;;;;;;;;;18.42;38.99;96388.56;6124824;19;1441;-85
2022/10/18 10:01:40;;;;;;;;;;;;;;;18.42;39.02;96388.56;6125443;19;1420;-87
2022/10/18 10:03:47;;;;;;;;;;;;;;;18.44;39.39;96379.44;6122111;19;1149;-83
2022/10/18 10:06:03;;;;;;;;;;;;;;;18.45;39.31;96375.75;6122223;19;1436;-79
2022/10/18 10:08:06;;;;;;;;;;;;;;;18.38;39.52;96372.13;6115266;19;1511;-84
2022/10/18 10:10:14;;;;;;;;;;;;;;;18.44;39.23;96371.44;6116313;19;1440;-87
2022/10/18 10:12:28;;;;;;;;;;;;;;;18.45;39.38;96366.94;6122877;19;1437;-86
2022/10/18 10:14:46;;;;;;;;;;;;;;;18.44;39.39;96365.28;6123308;19;1507;-86
2022/10/18 10:16:51;;;;;;;;;;;;;;;18.43;39.72;96356.47;6119983;19;1407;-86
2022/10/18 10:18:57;;;;;;;;;;;;;;;18.43;39.70;96347.66;6122491;19;1844;-88
2022/10/18 10:21:02;;;;;;;;;;;;;;;18.41;39.93;96337.19;6107271;19;1497;-87
2022/10/18 10:23:10;;;;;;;;;;;;;;;18.42;39.58;96338.84;6123299;19;1034;-87
2022/10/18 10:25:22;;;;;;;;;;;;;;;18.42;39.81;96332.69;6126611;19;1441;-86
2022/10/18 10:27:31;;;;;;;;;;;;;;;18.44;39.92;96336.84;6121059;19;1404;-87
2022/10/18 10:29:50;;;;;;;;;;;;;;;18.43;39.97;96329.84;6123638;19;1462;-87
2022/10/18 10:32:03;;;;;;;;;;;;;;;18.44;40.19;96320.88;6109038;19;1082;-87
2022/10/18 10:34:20;;;;;;;;;;;;;;;18.44;40.06;96315.56;6126687;19;1441;-87
2022/10/18 10:36:24;;;;;;;;;;;;;;;18.44;39.84;96312.03;6123827;19;1507;-87
2022/10/18 10:38:28;;;;;;;;;;;;;;;18.45;39.82;96306.56;6125367;19;1826;-86
2022/10/18 10:40:32;;;;;;;;;;;;;;;18.45;40.36;96311.88;6124902;19;1408;-86
2022/10/18 10:42:39;;;;;;;;;;;;;;;18.46;39.90;96302.91;6114355;19;1029;-87
2022/10/18 10:44:55;;;;;;;;;;;;;;;18.46;40.22;96294.91;6117734;19;1433;-91
2022/10/18 10:46:59;;;;;;;;;;;;;;;18.47;40.24;96287.78;6127594;19;1353;-86
2022/10/18 10:49:03;;;;;;;;;;;;;;;18.47;40.26;96291.28;6123121;19;1436;-86
2022/10/18 10:51:10;;;;;;;;;;;;;;;18.48;40.41;96278.78;6123573;19;1246;-87
2022/10/18 10:53:22;;;;;;;;;;;;;;;18.48;40.12;96284.94;6123287;19;1515;-87
2022/10/18 10:55:27;;;;;;;;;;;;;;;18.49;40.48;96281.25;6109529;19;1517;-86
2022/10/18 10:57:31;;;;;;;;;;;;;;;18.49;40.08;96275.94;6121997;19;1088;-86
2022/10/18 10:59:42;;;;;;;;;;;;;;;18.49;40.60;96267.97;6122117;19;1900;-86
2022/10/18 11:01:48;;;;;;;;;;;;;;;18.50;40.62;96276.81;6122147;19;1441;-85